createdAt,value
2019-02-11T00:00:54.145Z,22.00
2019-02-11T00:03:22.355Z,21.57
2019-02-11T00:05:50.470Z,21.80
2019-02-11T00:08:21.975Z,27.37
2019-02-11T00:11:01.696Z,20.83
2019-02-11T00:13:36.926Z,19.77
2019-02-11T00:16:06.342Z,14.90
2019-02-11T00:18:39.350Z,14.77
2019-02-11T00:21:07.791Z,17.60
2019-02-11T00:23:43.471Z,17.23
2019-02-11T00:26:12.253Z,16.90
2019-02-11T00:28:41.929Z,20.00
2019-02-11T00:31:11.018Z,21.23
2019-02-11T00:33:39.594Z,19.17
2019-02-11T00:36:13.961Z,14.33
2019-02-11T00:38:41.901Z,16.37
2019-02-11T00:41:10.411Z,16.30
2019-02-11T00:43:38.994Z,12.00
2019-02-11T00:46:07.530Z,16.87
2019-02-11T00:48:39.418Z,16.67
2019-02-11T00:51:09.012Z,11.83
2019-02-11T00:53:39.985Z,13.23
2019-02-11T01:02:26.996Z,12.97
2019-02-11T01:04:56.230Z,17.50
2019-02-11T01:07:27.448Z,12.00
2019-02-11T01:09:55.873Z,13.87
2019-02-11T01:12:23.628Z,15.63
2019-02-11T01:14:52.083Z,16.23
2019-02-11T01:17:20.106Z,17.70
2019-02-11T01:19:48.496Z,17.83
2019-02-11T01:22:17.148Z,11.13
2019-02-11T01:24:45.106Z,15.07
2019-02-11T01:27:18.329Z,12.77
2019-02-11T01:29:47.319Z,14.93
2019-02-11T01:32:15.514Z,15.97
2019-02-11T01:34:43.833Z,18.43
2019-02-11T01:37:12.271Z,17.53
2019-02-11T01:40:04.363Z,16.50
2019-02-11T01:42:33.625Z,13.73
2019-02-11T01:45:02.551Z,19.20
2019-02-11T01:47:31.480Z,22.97
2019-02-11T01:49:59.868Z,16.17
2019-02-11T01:52:28.183Z,18.13
2019-02-11T01:54:55.905Z,16.97
2019-02-11T01:57:24.193Z,14.70
2019-02-11T01:59:52.335Z,15.13
2019-02-11T02:02:20.295Z,21.10
2019-02-11T02:04:48.477Z,14.67
2019-02-11T02:07:16.365Z,17.33
2019-02-11T02:09:46.430Z,16.87
2019-02-11T02:12:14.813Z,19.27
2019-02-11T02:14:42.703Z,18.73
2019-02-11T02:17:12.146Z,17.37
2019-02-11T02:19:40.211Z,18.40
2019-02-11T02:22:08.634Z,18.07
2019-02-11T02:24:37.044Z,16.50
2019-02-11T02:27:05.655Z,16.10
2019-02-11T02:29:45.274Z,16.03
2019-02-11T02:32:18.235Z,15.47
2019-02-11T02:34:50.430Z,16.73
2019-02-11T02:37:18.475Z,19.30
2019-02-11T02:39:50.527Z,14.40
2019-02-11T02:42:19.226Z,12.23
2019-02-11T02:44:50.627Z,15.53
2019-02-11T02:47:19.400Z,13.97
2019-02-11T02:49:49.024Z,14.10
2019-02-11T02:55:51.345Z,15.67
2019-02-11T02:58:25.943Z,14.27
2019-02-11T03:00:55.899Z,17.90
2019-02-11T03:03:27.921Z,17.47
2019-02-11T03:05:57.466Z,17.97
2019-02-11T03:08:47.745Z,13.67
2019-02-11T03:11:16.789Z,13.50
2019-02-11T03:13:52.384Z,14.83
2019-02-11T03:16:20.614Z,14.70
2019-02-11T03:18:48.448Z,17.77
2019-02-11T03:21:22.009Z,19.03
2019-02-11T03:23:51.089Z,16.10
2019-02-11T03:26:20.083Z,18.00
2019-02-11T03:28:48.166Z,20.53
2019-02-11T03:31:22.464Z,18.43
2019-02-11T03:33:51.176Z,16.60
2019-02-11T03:36:19.447Z,17.30
2019-02-11T03:38:47.767Z,14.13
2019-02-11T03:41:16.716Z,15.20
2019-02-11T03:43:46.881Z,18.13
2019-02-11T03:46:14.984Z,14.37
2019-02-11T03:48:47.394Z,17.00
2019-02-11T03:51:15.288Z,17.23
2019-02-11T03:53:43.433Z,19.80
2019-02-11T03:56:12.131Z,22.13
2019-02-11T03:58:40.041Z,23.60
2019-02-11T04:01:08.295Z,17.00
2019-02-11T04:03:37.938Z,19.23
2019-02-11T04:06:08.016Z,18.57
2019-02-11T04:08:36.153Z,16.03
2019-02-11T04:11:17.603Z,24.27
2019-02-11T04:13:45.902Z,21.27
2019-02-11T04:16:14.715Z,19.83
2019-02-11T04:18:42.756Z,17.80
2019-02-11T04:21:11.695Z,17.30
2019-02-11T04:23:40.430Z,17.27
2019-02-11T04:26:09.220Z,16.97
2019-02-11T04:28:37.561Z,19.33
2019-02-11T04:31:07.342Z,15.47
2019-02-11T04:33:36.676Z,19.43
2019-02-11T04:36:09.404Z,23.30
2019-02-11T04:38:42.679Z,15.83
2019-02-11T04:41:14.872Z,15.13
2019-02-11T04:43:43.890Z,14.30
2019-02-11T04:46:12.389Z,18.50
2019-02-11T04:48:41.012Z,19.77
2019-02-11T04:51:09.436Z,19.90
2019-02-11T04:53:44.945Z,21.33
2019-02-11T04:56:13.083Z,19.53
2019-02-11T04:58:54.856Z,23.40
2019-02-11T05:01:23.067Z,21.73
2019-02-11T05:03:51.399Z,24.53
2019-02-11T05:06:20.076Z,21.30
2019-02-11T05:08:49.832Z,22.43
2019-02-11T05:11:18.397Z,21.17
2019-02-11T05:13:46.806Z,18.27
2019-02-11T05:16:15.294Z,27.00
2019-02-11T05:18:43.921Z,23.57
2019-02-11T05:21:13.361Z,19.60
2019-02-11T05:23:47.300Z,22.57
2019-02-11T05:26:15.882Z,20.57
2019-02-11T05:28:44.207Z,18.40
2019-02-11T05:31:12.420Z,21.17
2019-02-11T05:33:43.341Z,20.93
2019-02-11T05:36:27.636Z,19.73
2019-02-11T05:39:02.686Z,25.93
2019-02-11T05:41:36.707Z,18.13
2019-02-11T05:44:07.832Z,20.10
2019-02-11T05:46:37.676Z,21.43
2019-02-11T05:49:07.713Z,21.60
2019-02-11T05:51:59.819Z,21.83
2019-02-11T05:54:28.628Z,20.07
2019-02-11T05:56:56.916Z,19.30
2019-02-11T06:02:04.326Z,15.00
2019-02-11T06:04:33.153Z,20.60
2019-02-11T06:07:03.374Z,16.60
2019-02-11T06:09:31.282Z,19.43
2019-02-11T06:11:59.889Z,20.67
2019-02-11T06:14:29.860Z,15.30
2019-02-11T06:16:58.291Z,20.50
2019-02-11T06:19:27.170Z,21.10
2019-02-11T06:21:55.520Z,20.13
2019-02-11T06:24:33.960Z,18.70
2019-02-11T06:35:35.508Z,19.33
2019-02-11T06:38:04.647Z,21.97
2019-02-11T06:40:32.502Z,19.00
2019-02-11T06:43:00.004Z,31.83
2019-02-11T06:45:27.990Z,24.63
2019-02-11T06:47:55.763Z,28.03
2019-02-11T06:50:25.650Z,21.50
2019-02-11T06:52:53.512Z,21.17
2019-02-11T06:55:23.315Z,19.90
2019-02-11T06:57:54.982Z,22.77
2019-02-11T07:00:24.824Z,27.30
2019-02-11T07:02:52.852Z,23.87
2019-02-11T07:05:20.629Z,28.13
2019-02-11T07:07:48.539Z,28.97
2019-02-11T07:10:20.126Z,24.87
2019-02-11T07:12:48.827Z,28.13
2019-02-11T07:15:22.105Z,23.53
2019-02-11T07:17:49.384Z,21.40
2019-02-11T07:20:16.676Z,21.13
2019-02-11T07:22:45.278Z,31.33
2019-02-11T07:25:12.995Z,24.10
2019-02-11T07:27:43.362Z,22.57
2019-02-11T07:30:11.416Z,20.57
2019-02-11T07:32:41.889Z,18.77
2019-02-11T07:35:09.757Z,30.73
2019-02-11T07:37:37.230Z,30.60
2019-02-11T07:40:09.722Z,26.33
2019-02-11T07:43:08.537Z,23.63
2019-02-11T07:45:43.967Z,30.43
2019-02-11T07:48:15.681Z,26.47
2019-02-11T07:50:43.913Z,25.80
2019-02-11T07:53:11.704Z,27.03
2019-02-11T07:55:39.403Z,23.03
2019-02-11T07:58:08.991Z,26.83
2019-02-11T08:00:36.702Z,24.57
2019-02-11T08:03:04.344Z,28.07
2019-02-11T08:05:32.360Z,26.67
2019-02-11T08:07:59.980Z,21.47
2019-02-11T08:10:27.732Z,23.90
2019-02-11T08:12:55.729Z,27.23
2019-02-11T08:15:23.664Z,26.03
2019-02-11T08:17:50.948Z,28.37
2019-02-11T08:20:18.643Z,22.83
2019-02-11T08:22:46.276Z,19.77
2019-02-11T08:25:13.717Z,21.67
2019-02-11T08:27:41.363Z,24.20
2019-02-11T08:30:08.635Z,23.83
2019-02-11T08:32:36.262Z,18.20
2019-02-11T08:35:04.241Z,27.07
2019-02-11T08:37:31.679Z,24.30
2019-02-11T08:39:59.514Z,22.17
2019-02-11T08:42:28.490Z,19.77
2019-02-11T08:44:56.134Z,19.07
2019-02-11T08:47:23.434Z,21.97
2019-02-11T08:49:51.494Z,27.50
2019-02-11T08:52:18.890Z,22.60
2019-02-11T08:54:46.659Z,23.67
2019-02-11T08:57:14.233Z,18.43
2019-02-11T08:59:41.921Z,23.00
2019-02-11T09:02:10.033Z,20.13
2019-02-11T09:04:38.863Z,15.60
2019-02-11T09:07:06.685Z,19.20
2019-02-11T09:09:34.390Z,23.40
2019-02-11T09:12:02.051Z,25.77
2019-02-11T09:14:30.922Z,24.57
2019-02-11T09:16:58.482Z,23.97
2019-02-11T09:19:26.267Z,19.47
2019-02-11T09:21:54.129Z,24.93
2019-02-11T09:24:21.890Z,31.40
2019-02-11T09:26:49.540Z,29.13
2019-02-11T09:29:17.333Z,24.87
2019-02-11T09:31:45.044Z,22.10
2019-02-11T09:34:14.204Z,20.57
2019-02-11T09:36:42.011Z,26.03
2019-02-11T09:39:09.312Z,21.80
2019-02-11T09:41:38.522Z,21.87
2019-02-11T09:44:06.385Z,23.90
2019-02-11T09:46:34.339Z,24.37
2019-02-11T09:49:04.757Z,25.77
2019-02-11T09:51:34.232Z,21.53
2019-02-11T09:54:04.093Z,20.33
2019-02-11T09:56:31.554Z,28.50
2019-02-11T09:58:59.192Z,26.03
2019-02-11T10:01:27.116Z,25.33
2019-02-11T10:03:54.735Z,22.30
2019-02-11T10:06:22.486Z,20.57
2019-02-11T10:08:49.848Z,26.27
2019-02-11T10:11:17.400Z,22.73
2019-02-11T10:13:45.070Z,24.63
2019-02-11T10:16:12.834Z,28.50
2019-02-11T10:21:12.978Z,25.50
2019-02-11T10:23:41.946Z,23.83
2019-02-11T10:26:10.127Z,22.03
2019-02-11T10:28:37.815Z,19.07
2019-02-11T10:31:05.565Z,24.97
2019-02-11T10:33:33.358Z,14.90
2019-02-11T10:36:01.506Z,22.23
2019-02-11T10:38:36.214Z,22.57
2019-02-11T10:40:59.277Z,25.37
2019-02-11T10:43:26.894Z,33.10
2019-02-11T10:45:55.029Z,25.40
2019-02-11T10:48:25.429Z,19.13
2019-02-11T10:55:16.871Z,27.93
2019-02-11T10:57:44.621Z,27.27
2019-02-11T11:00:14.819Z,23.97
2019-02-11T11:02:42.560Z,23.47
2019-02-11T11:05:10.778Z,28.97
2019-02-11T11:07:39.177Z,23.90
2019-02-11T11:10:10.215Z,22.17
2019-02-11T11:12:37.982Z,28.63
2019-02-11T11:15:05.981Z,25.77
2019-02-11T11:17:33.574Z,22.73
2019-02-11T11:20:01.533Z,29.57
2019-02-11T11:22:31.113Z,26.13
2019-02-11T11:25:00.680Z,27.20
2019-02-11T11:27:29.764Z,21.53
2019-02-11T11:29:57.634Z,25.07
2019-02-11T11:32:25.164Z,25.27
2019-02-11T11:34:52.629Z,24.67
2019-02-11T11:37:20.231Z,22.20
2019-02-11T11:39:48.104Z,21.67
2019-02-11T11:42:17.885Z,20.27
2019-02-11T11:44:46.120Z,22.13
2019-02-11T11:47:15.495Z,24.20
2019-02-11T11:49:43.212Z,18.53
2019-02-11T11:52:14.570Z,20.37
2019-02-11T11:54:42.488Z,22.90
2019-02-11T11:57:11.648Z,27.90
2019-02-11T11:59:41.085Z,30.87
2019-02-11T12:02:08.983Z,22.10
2019-02-11T12:04:37.825Z,23.40
2019-02-11T12:07:06.736Z,18.37
2019-02-11T12:09:34.952Z,21.63
2019-02-11T12:12:08.152Z,23.43
2019-02-11T12:14:39.192Z,27.13
2019-02-11T12:17:07.761Z,18.83
2019-02-11T12:19:38.768Z,26.17
2019-02-11T12:22:13.390Z,24.73
2019-02-11T12:25:13.894Z,20.47
2019-02-11T12:27:41.870Z,22.40
2019-02-11T12:30:59.422Z,20.17
2019-02-11T12:33:27.308Z,19.17
2019-02-11T12:35:54.713Z,21.87
2019-02-11T12:38:22.593Z,22.60
2019-02-11T12:40:50.365Z,20.33
2019-02-11T12:43:17.804Z,14.73
2019-02-11T12:45:45.371Z,13.83
2019-02-11T12:48:13.135Z,20.20
2019-02-11T12:50:43.396Z,19.60
2019-02-11T12:53:10.782Z,19.90
2019-02-11T12:55:38.308Z,14.87
2019-02-11T12:58:06.035Z,22.10
2019-02-11T13:00:33.390Z,21.73
2019-02-11T13:03:01.114Z,19.80
2019-02-11T13:05:44.372Z,19.40
2019-02-11T13:08:01.384Z,17.50
2019-02-11T13:10:30.040Z,18.50
2019-02-11T13:12:57.967Z,20.20
2019-02-11T13:15:57.477Z,15.67
2019-02-11T13:17:56.054Z,17.23
2019-02-11T13:20:25.873Z,12.53
2019-02-11T13:22:53.612Z,18.43
2019-02-11T13:25:21.640Z,22.83
2019-02-11T13:27:49.221Z,15.10
2019-02-11T13:30:18.170Z,14.37
2019-02-11T13:32:45.507Z,11.90
2019-02-11T13:35:13.813Z,14.53
2019-02-11T13:37:42.060Z,14.43
2019-02-11T13:40:09.555Z,16.10
2019-02-11T13:42:37.453Z,14.57
2019-02-11T13:45:09.832Z,19.93
2019-02-11T13:47:52.320Z,16.37
2019-02-11T13:50:07.264Z,15.53
2019-02-11T13:52:35.098Z,18.00
2019-02-11T13:55:30.539Z,14.27
2019-02-11T13:58:04.219Z,22.83
2019-02-11T14:00:35.357Z,17.27
2019-02-11T14:03:04.719Z,18.43
2019-02-11T14:05:32.489Z,18.60
2019-02-11T14:08:00.709Z,24.03
2019-02-11T14:10:30.011Z,21.97
2019-02-11T14:12:57.732Z,23.07
2019-02-11T14:15:25.340Z,22.00
2019-02-11T14:18:10.466Z,23.97
2019-02-11T14:20:24.741Z,21.33
2019-02-11T14:22:52.420Z,21.33
2019-02-11T14:25:39.346Z,27.90
2019-02-11T14:27:56.089Z,25.60
2019-02-11T14:30:24.402Z,27.13
2019-02-11T14:32:51.993Z,26.60
2019-02-11T14:35:20.107Z,19.57
2019-02-11T14:37:48.551Z,27.60
2019-02-11T14:40:16.764Z,27.00
2019-02-11T14:42:46.635Z,25.17
2019-02-11T14:45:17.402Z,26.43
2019-02-11T14:47:45.077Z,23.57
2019-02-11T14:50:13.204Z,21.87
2019-02-11T14:52:41.226Z,25.93
2019-02-11T14:55:09.096Z,23.00
2019-02-11T14:57:36.510Z,21.47
2019-02-11T15:00:08.106Z,18.67
2019-02-11T15:02:36.119Z,20.40
2019-02-11T15:05:04.304Z,22.43
2019-02-11T15:07:32.209Z,21.87
2019-02-11T15:10:00.769Z,20.57
2019-02-11T15:12:28.694Z,17.67
2019-02-11T15:14:56.502Z,20.60
2019-02-11T15:23:31.022Z,22.97
2019-02-11T15:25:59.076Z,19.90
2019-02-11T15:28:26.788Z,20.10
2019-02-11T15:30:54.717Z,17.83
2019-02-11T15:33:22.808Z,25.83
2019-02-11T15:35:50.535Z,24.10
2019-02-11T15:38:18.404Z,19.43
2019-02-11T15:40:46.198Z,22.57
2019-02-11T15:43:13.906Z,24.03
2019-02-11T15:45:41.774Z,20.87
2019-02-11T15:48:09.316Z,21.83
2019-02-11T15:50:37.417Z,24.07
2019-02-11T15:53:06.192Z,19.00
2019-02-11T15:55:34.826Z,24.83
2019-02-11T15:58:03.124Z,19.43
2019-02-11T16:00:31.431Z,14.67
2019-02-11T16:03:05.019Z,20.53
2019-02-11T16:05:33.080Z,21.07
2019-02-11T16:08:01.037Z,19.07
2019-02-11T16:10:29.483Z,18.77
2019-02-11T16:12:59.721Z,21.90
2019-02-11T16:15:27.723Z,19.73
2019-02-11T16:17:57.362Z,19.47
2019-02-11T16:20:25.562Z,19.63
2019-02-11T16:22:53.987Z,21.93
2019-02-11T16:25:22.122Z,24.40
2019-02-11T16:27:51.855Z,18.87
2019-02-11T16:36:59.158Z,30.00
2019-02-11T16:39:27.158Z,21.87
2019-02-11T16:42:09.091Z,15.97
2019-02-11T16:44:35.788Z,17.53
2019-02-11T16:47:04.355Z,22.73
2019-02-11T16:49:34.382Z,16.97
2019-02-11T16:52:41.107Z,23.97
2019-02-11T16:54:51.296Z,21.40
2019-02-11T16:57:30.104Z,17.47
2019-02-11T17:00:28.208Z,20.67
2019-02-11T17:02:58.177Z,22.67
2019-02-11T17:05:29.317Z,26.00
2019-02-11T17:08:08.854Z,20.87
2019-02-11T17:13:32.180Z,16.60
2019-02-11T17:16:01.073Z,22.37
2019-02-11T17:18:29.198Z,15.50
2019-02-11T17:20:57.537Z,17.97
2019-02-11T17:23:25.784Z,18.83
2019-02-11T17:25:54.273Z,23.53
2019-02-11T17:28:22.465Z,15.67
2019-02-11T17:31:11.574Z,22.37
2019-02-11T17:33:39.569Z,18.93
2019-02-11T17:36:08.686Z,19.43
2019-02-11T17:38:36.631Z,25.70
2019-02-11T17:41:04.593Z,18.57
2019-02-11T17:43:32.376Z,14.13
2019-02-11T17:46:00.282Z,17.57
2019-02-11T17:48:28.655Z,19.90
2019-02-11T17:50:57.338Z,18.10
2019-02-11T17:53:26.135Z,23.97
2019-02-11T17:55:54.186Z,16.93
2019-02-11T17:58:23.511Z,20.50
2019-02-11T18:00:54.921Z,13.37
2019-02-11T18:03:23.555Z,18.53
2019-02-11T18:05:51.717Z,18.53
2019-02-11T18:08:21.744Z,20.10
2019-02-11T18:10:51.716Z,16.07
2019-02-11T18:13:19.820Z,21.70
2019-02-11T18:15:47.860Z,22.10
2019-02-11T18:18:17.013Z,19.17
2019-02-11T18:20:45.413Z,19.27
2019-02-11T18:26:27.862Z,18.47
2019-02-11T18:28:55.897Z,12.03
2019-02-11T18:31:39.103Z,13.87
2019-02-11T18:34:08.056Z,8.40
2019-02-11T18:36:37.151Z,14.30
2019-02-11T18:39:07.604Z,11.73
2019-02-11T18:41:35.168Z,14.77
2019-02-11T18:44:03.177Z,14.10
2019-02-11T18:46:30.981Z,16.30
2019-02-11T18:48:59.187Z,13.03
2019-02-11T18:51:27.715Z,19.10
2019-02-11T18:53:56.272Z,13.40
2019-02-11T18:56:28.732Z,15.80
2019-02-11T18:58:57.131Z,11.67
2019-02-11T19:01:26.053Z,16.37
2019-02-11T19:03:54.341Z,15.57
2019-02-11T19:06:22.552Z,18.70
2019-02-11T19:08:50.451Z,20.07
2019-02-11T19:11:18.166Z,17.40
2019-02-11T19:13:47.003Z,21.73
2019-02-11T19:16:21.866Z,16.60
2019-02-11T19:18:49.570Z,16.10
2019-02-11T19:21:17.609Z,11.63
2019-02-11T19:26:40.892Z,12.87
2019-02-11T19:29:08.473Z,8.60
2019-02-11T19:31:35.992Z,8.80
2019-02-11T19:34:06.786Z,14.03
2019-02-11T19:36:35.088Z,16.43
2019-02-11T19:39:04.518Z,13.13
2019-02-11T19:56:02.965Z,11.73
2019-02-11T19:59:01.306Z,11.57
2019-02-11T20:01:43.548Z,12.27
2019-02-11T20:04:46.304Z,9.53
2019-02-11T20:16:43.829Z,13.00
2019-02-11T20:19:34.977Z,12.73
2019-02-11T20:22:24.321Z,12.60
2019-02-11T20:25:18.973Z,13.63
2019-02-11T20:52:06.736Z,10.17
2019-02-11T20:54:36.434Z,11.33
2019-02-11T21:11:49.047Z,10.60
2019-02-11T21:14:59.477Z,7.83
2019-02-11T21:39:44.220Z,13.37
2019-02-11T21:42:35.001Z,10.63
2019-02-11T21:45:03.256Z,13.10
2019-02-11T21:47:34.298Z,16.73
2019-02-11T21:50:12.629Z,15.10
2019-02-11T21:52:52.581Z,10.70
2019-02-11T22:01:24.454Z,9.83
2019-02-11T22:04:08.939Z,7.20
2019-02-11T22:06:58.748Z,8.67
2019-02-11T22:16:24.581Z,10.47
2019-02-11T22:18:53.227Z,11.93
2019-02-11T22:21:22.834Z,12.77
2019-02-11T22:23:51.325Z,11.53
2019-02-11T22:27:00.118Z,9.07
2019-02-11T22:29:37.488Z,11.27
2019-02-11T22:32:01.681Z,10.83
2019-02-11T22:34:33.199Z,9.27
2019-02-11T22:37:37.651Z,13.77
2019-02-11T22:40:09.902Z,9.13
2019-02-11T22:45:45.695Z,12.70
2019-02-11T22:54:33.545Z,11.07
2019-02-11T22:57:31.541Z,11.10
2019-02-11T23:00:15.497Z,15.97
2019-02-11T23:02:53.358Z,13.23
2019-02-11T23:05:22.178Z,14.00
2019-02-11T23:08:00.333Z,13.57
2019-02-11T23:10:38.655Z,8.57
2019-02-11T23:13:10.028Z,9.23
2019-02-11T23:15:38.517Z,12.47
2019-02-11T23:18:07.324Z,8.43
2019-02-11T23:20:52.150Z,12.80
2019-02-11T23:23:15.989Z,8.57
2019-02-11T23:25:49.015Z,14.13
2019-02-11T23:28:20.564Z,8.53
2019-02-11T23:30:47.563Z,10.07
2019-02-11T23:33:16.751Z,13.00
2019-02-11T23:35:45.084Z,14.27
2019-02-11T23:38:28.292Z,7.23
2019-02-11T23:41:25.477Z,13.57
2019-02-11T23:43:55.320Z,8.90
2019-02-11T23:46:28.840Z,10.53
2019-02-11T23:48:58.292Z,10.33
2019-02-11T23:51:32.542Z,14.70
2019-02-11T23:53:59.673Z,8.40
2019-02-11T23:56:27.962Z,9.47
2019-02-11T23:58:56.433Z,11.07
